createdAt,value
2018-04-19T00:02:02.530Z,12.40
2018-04-19T00:04:29.983Z,12.40
2018-04-19T00:06:58.361Z,12.40
2018-04-19T00:09:31.910Z,12.40
2018-04-19T00:11:59.345Z,12.30
2018-04-19T00:14:27.122Z,12.30
2018-04-19T00:16:54.676Z,12.30
2018-04-19T00:19:22.103Z,12.20
2018-04-19T00:21:49.526Z,12.20
2018-04-19T00:24:18.581Z,12.10
2018-04-19T00:26:46.703Z,12.10
2018-04-19T00:29:14.158Z,12.10
2018-04-19T00:31:41.635Z,12.10
2018-04-19T00:34:09.401Z,12.00
2018-04-19T00:36:37.662Z,11.90
2018-04-19T00:39:06.485Z,11.90
2018-04-19T00:41:33.942Z,11.90
2018-04-19T00:44:01.419Z,11.90
2018-04-19T00:46:28.847Z,11.80
2018-04-19T00:48:56.536Z,11.80
2018-04-19T00:51:24.479Z,11.80
2018-04-19T00:53:51.930Z,11.80
2018-04-19T00:56:19.647Z,11.70
2018-04-19T00:58:47.085Z,11.70
2018-04-19T01:01:17.670Z,11.70
2018-04-19T01:03:45.139Z,11.70
2018-04-19T01:06:12.779Z,11.70
2018-04-19T01:08:46.910Z,11.70
2018-04-19T01:11:15.198Z,11.60
2018-04-19T01:13:42.630Z,11.60
2018-04-19T01:16:10.540Z,11.40
2018-04-19T01:18:38.022Z,11.40
2018-04-19T01:21:06.219Z,11.40
2018-04-19T01:23:34.568Z,11.40
2018-04-19T01:26:02.111Z,11.40
2018-04-19T01:28:30.550Z,11.30
2018-04-19T01:30:58.187Z,11.30
2018-04-19T01:33:26.454Z,11.30
2018-04-19T01:36:05.806Z,11.30
2018-04-19T01:38:34.014Z,11.20
2018-04-19T01:43:48.140Z,11.10
2018-04-19T01:46:16.332Z,11.20
2018-04-19T01:48:44.545Z,11.20
2018-04-19T01:51:12.214Z,11.20
2018-04-19T01:53:39.646Z,11.20
2018-04-19T01:56:07.126Z,11.10
2018-04-19T01:58:35.039Z,11.10
2018-04-19T02:01:03.247Z,11.10
2018-04-19T02:03:30.672Z,11.00
2018-04-19T02:05:59.121Z,10.90
2018-04-19T02:08:27.199Z,10.90
2018-04-19T02:10:54.658Z,10.80
2018-04-19T02:13:22.303Z,10.80
2018-04-19T02:15:49.740Z,10.70
2018-04-19T02:18:18.236Z,10.80
2018-04-19T02:20:46.544Z,10.70
2018-04-19T02:23:13.978Z,10.70
2018-04-19T02:25:41.751Z,10.80
2018-04-19T02:28:09.407Z,10.70
2018-04-19T02:30:37.049Z,10.70
2018-04-19T02:33:04.546Z,10.70
2018-04-19T02:35:32.199Z,10.80
2018-04-19T02:38:00.149Z,10.80
2018-04-19T02:40:27.618Z,10.80
2018-04-19T02:42:55.064Z,10.90
2018-04-19T02:45:22.564Z,11.00
2018-04-19T02:47:50.767Z,11.00
2018-04-19T02:50:18.942Z,10.90
2018-04-19T02:52:46.363Z,11.00
2018-04-19T02:55:15.211Z,11.00
2018-04-19T02:57:42.665Z,11.00
2018-04-19T03:00:10.627Z,11.00
2018-04-19T03:02:38.115Z,11.10
2018-04-19T03:05:05.574Z,11.20
2018-04-19T03:07:33.021Z,11.20
2018-04-19T03:10:00.618Z,11.10
2018-04-19T03:12:28.902Z,11.00
2018-04-19T03:14:56.328Z,11.10
2018-04-19T03:17:24.282Z,11.00
2018-04-19T03:19:51.716Z,10.90
2018-04-19T03:22:19.195Z,10.80
2018-04-19T03:24:46.639Z,10.80
2018-04-19T03:27:14.102Z,10.60
2018-04-19T03:29:41.547Z,10.60
2018-04-19T03:32:08.984Z,10.50
2018-04-19T03:34:36.441Z,10.60
2018-04-19T03:37:04.327Z,10.50
2018-04-19T03:39:31.765Z,10.40
2018-04-19T03:41:59.261Z,10.40
2018-04-19T03:44:26.705Z,10.50
2018-04-19T03:46:54.284Z,10.50
2018-04-19T03:49:21.697Z,10.60
2018-04-19T03:51:49.245Z,10.60
2018-04-19T03:54:17.442Z,10.50
2018-04-19T03:56:44.958Z,10.50
2018-04-19T03:59:13.066Z,10.50
2018-04-19T04:01:41.361Z,10.60
2018-04-19T04:04:08.990Z,10.60
2018-04-19T04:06:37.230Z,10.70
2018-04-19T04:09:04.815Z,10.70
2018-04-19T04:11:32.241Z,10.70
2018-04-19T04:13:59.718Z,10.80
2018-04-19T04:16:40.545Z,11.00
2018-04-19T04:19:20.219Z,11.00
2018-04-19T04:21:59.558Z,11.00
2018-04-19T04:24:28.032Z,11.00
2018-04-19T04:26:56.114Z,11.10
2018-04-19T04:29:23.567Z,11.10
2018-04-19T04:31:50.994Z,11.10
2018-04-19T04:34:18.483Z,11.10
2018-04-19T04:36:45.951Z,11.10
2018-04-19T04:39:14.573Z,11.00
2018-04-19T04:41:42.034Z,11.00
2018-04-19T04:44:09.545Z,11.10
2018-04-19T04:46:37.055Z,11.00
2018-04-19T04:49:04.727Z,11.00
2018-04-19T04:51:32.170Z,10.90
2018-04-19T04:53:59.696Z,10.90
2018-04-19T04:56:27.121Z,10.90
2018-04-19T04:58:54.715Z,11.00
2018-04-19T05:01:22.919Z,11.30
2018-04-19T05:03:51.881Z,11.40
2018-04-19T05:06:21.081Z,11.50
2018-04-19T05:08:48.711Z,11.50
2018-04-19T05:11:16.183Z,11.60
2018-04-19T05:13:44.304Z,11.80
2018-04-19T05:16:11.731Z,11.90
2018-04-19T05:18:39.956Z,12.10
2018-04-19T05:21:07.656Z,12.10
2018-04-19T05:23:35.088Z,12.30
2018-04-19T05:26:02.531Z,12.50
2018-04-19T05:28:29.980Z,12.70
2018-04-19T05:30:58.096Z,12.90
2018-04-19T05:33:25.542Z,13.00
2018-04-19T05:35:52.986Z,13.10
2018-04-19T05:38:20.532Z,13.30
2018-04-19T05:40:48.881Z,13.50
2018-04-19T05:43:17.196Z,13.60
2018-04-19T05:45:44.730Z,13.60
2018-04-19T05:48:12.204Z,13.90
2018-04-19T05:50:39.699Z,14.00
2018-04-19T05:53:07.201Z,14.30
2018-04-19T05:55:38.375Z,14.50
2018-04-19T05:58:05.812Z,14.90
2018-04-19T06:00:33.294Z,15.20
2018-04-19T06:03:00.846Z,15.50
2018-04-19T06:05:28.635Z,15.60
2018-04-19T06:07:56.071Z,15.70
2018-04-19T06:10:23.562Z,16.10
2018-04-19T06:12:53.199Z,16.20
2018-04-19T06:15:21.454Z,16.30
2018-04-19T06:17:48.883Z,16.30
2018-04-19T06:20:16.310Z,16.50
2018-04-19T06:22:44.001Z,16.70
2018-04-19T06:25:11.971Z,17.00
2018-04-19T06:27:39.411Z,17.10
2018-04-19T06:30:06.838Z,16.90
2018-04-19T06:32:35.033Z,17.00
2018-04-19T06:35:02.514Z,17.00
2018-04-19T06:37:29.994Z,17.40
2018-04-19T06:39:57.479Z,17.40
2018-04-19T06:42:25.665Z,18.10
2018-04-19T06:44:53.853Z,17.80
2018-04-19T06:47:21.346Z,17.80
2018-04-19T06:49:48.788Z,18.00
2018-04-19T06:52:16.240Z,17.90
2018-04-19T06:54:44.008Z,17.90
2018-04-19T06:57:14.827Z,18.70
2018-04-19T06:59:42.270Z,18.80
2018-04-19T07:02:10.612Z,19.30
2018-04-19T07:04:38.166Z,19.30
2018-04-19T07:07:05.603Z,19.40
2018-04-19T07:09:33.089Z,19.40
2018-04-19T07:12:00.554Z,19.90
2018-04-19T07:14:27.983Z,20.10
2018-04-19T07:16:55.402Z,20.00
2018-04-19T07:19:22.829Z,20.60
2018-04-19T07:21:50.304Z,20.20
2018-04-19T07:24:18.507Z,20.70
2018-04-19T07:26:45.935Z,20.70
2018-04-19T07:29:14.646Z,21.60
2018-04-19T07:31:42.101Z,21.50
2018-04-19T07:34:09.554Z,22.00
2018-04-19T07:39:24.147Z,22.40
2018-04-19T07:41:51.618Z,22.40
2018-04-19T07:44:19.162Z,22.50
2018-04-19T07:46:46.623Z,22.10
2018-04-19T07:49:14.679Z,22.50
2018-04-19T07:51:42.162Z,22.90
2018-04-19T07:54:09.612Z,22.90
2018-04-19T07:56:37.084Z,22.90
2018-04-19T07:59:04.509Z,22.60
2018-04-19T08:01:32.180Z,23.30
2018-04-19T08:03:59.686Z,23.70
2018-04-19T08:06:27.114Z,23.90
2018-04-19T08:08:54.777Z,24.20
2018-04-19T08:11:22.223Z,24.70
2018-04-19T08:13:50.396Z,24.50
2018-04-19T08:16:18.079Z,24.50
2018-04-19T08:18:45.494Z,24.50
2018-04-19T08:21:12.993Z,24.70
2018-04-19T08:23:40.449Z,25.10
2018-04-19T08:26:08.132Z,25.80
2018-04-19T08:28:35.567Z,26.00
2018-04-19T08:31:03.052Z,25.60
2018-04-19T08:33:30.475Z,25.40
2018-04-19T08:35:58.298Z,25.60
2018-04-19T08:38:25.725Z,25.70
2018-04-19T08:40:53.170Z,25.90
2018-04-19T08:43:20.627Z,26.90
2018-04-19T08:45:48.054Z,26.60
2018-04-19T08:48:15.499Z,25.80
2018-04-19T08:50:44.455Z,27.20
2018-04-19T08:53:12.928Z,27.10
2018-04-19T08:55:40.406Z,27.80
2018-04-19T08:58:08.653Z,27.30
2018-04-19T09:00:36.100Z,27.30
2018-04-19T09:03:04.537Z,27.40
2018-04-19T09:05:33.498Z,27.20
2018-04-19T09:08:00.998Z,27.20
2018-04-19T09:10:28.950Z,27.10
2018-04-19T09:12:57.181Z,26.80
2018-04-19T09:15:25.558Z,26.80
2018-04-19T09:17:53.124Z,27.00
2018-04-19T09:20:20.708Z,27.70
2018-04-19T09:22:48.161Z,27.80
2018-04-19T09:25:15.702Z,28.10
2018-04-19T09:27:43.371Z,28.20
2018-04-19T09:30:10.802Z,28.90
2018-04-19T09:32:38.369Z,28.60
2018-04-19T09:35:06.342Z,28.30
2018-04-19T09:37:34.815Z,28.50
2018-04-19T09:40:02.534Z,28.10
2018-04-19T09:42:32.534Z,28.70
2018-04-19T09:45:00.018Z,28.70
2018-04-19T09:47:28.945Z,28.70
2018-04-19T09:49:56.470Z,28.70
2018-04-19T09:52:25.139Z,28.60
2018-04-19T09:54:52.774Z,28.60
2018-04-19T09:57:21.393Z,28.40
2018-04-19T09:59:49.688Z,29.10
2018-04-19T10:02:17.719Z,29.10
2018-04-19T10:04:45.958Z,29.40
2018-04-19T10:07:13.574Z,29.10
2018-04-19T10:09:41.032Z,29.40
2018-04-19T10:12:08.459Z,28.80
2018-04-19T10:14:35.926Z,29.20
2018-04-19T10:17:03.331Z,29.90
2018-04-19T10:19:31.531Z,29.40
2018-04-19T10:21:59.212Z,29.40
2018-04-19T10:24:27.196Z,29.80
2018-04-19T10:26:54.641Z,29.80
2018-04-19T10:29:22.496Z,30.20
2018-04-19T10:31:49.947Z,29.80
2018-04-19T10:34:17.438Z,28.80
2018-04-19T10:36:44.895Z,29.10
2018-04-19T10:39:13.366Z,29.40
2018-04-19T10:41:40.818Z,29.60
2018-04-19T10:44:08.299Z,29.40
2018-04-19T10:46:36.070Z,29.50
2018-04-19T10:49:03.723Z,29.50
2018-04-19T10:51:31.330Z,29.90
2018-04-19T10:53:59.771Z,29.90
2018-04-19T10:56:27.215Z,29.90
2018-04-19T10:58:55.034Z,30.20
2018-04-19T11:01:23.232Z,30.30
2018-04-19T11:03:50.990Z,30.30
2018-04-19T11:06:22.382Z,29.40
2018-04-19T11:08:49.834Z,29.70
2018-04-19T11:11:17.286Z,29.50
2018-04-19T11:13:45.108Z,30.70
2018-04-19T11:16:13.307Z,30.30
2018-04-19T11:18:40.812Z,30.30
2018-04-19T11:21:09.051Z,29.80
2018-04-19T11:23:36.535Z,29.80
2018-04-19T11:26:03.974Z,29.80
2018-04-19T11:28:31.503Z,30.10
2018-04-19T11:30:59.739Z,29.20
2018-04-19T11:33:27.163Z,29.20
2018-04-19T11:35:54.856Z,30.20
2018-04-19T11:38:22.283Z,30.20
2018-04-19T11:40:49.719Z,30.60
2018-04-19T11:43:17.146Z,30.50
2018-04-19T11:45:44.578Z,29.80
2018-04-19T11:48:12.026Z,29.90
2018-04-19T11:50:39.546Z,29.70
2018-04-19T11:53:06.994Z,29.60
2018-04-19T11:55:35.221Z,29.90
2018-04-19T11:58:02.690Z,29.90
2018-04-19T12:00:30.334Z,30.00
2018-04-19T12:02:57.788Z,29.90
2018-04-19T12:05:25.222Z,29.40
2018-04-19T12:07:52.702Z,29.90
2018-04-19T12:10:20.176Z,29.50
2018-04-19T12:12:48.109Z,29.50
2018-04-19T12:15:15.707Z,29.60
2018-04-19T12:17:43.135Z,29.30
2018-04-19T12:20:10.590Z,29.70
2018-04-19T12:22:38.030Z,29.80
2018-04-19T12:25:06.218Z,30.40
2018-04-19T12:27:33.785Z,30.30
2018-04-19T12:30:01.210Z,30.30
2018-04-19T12:32:29.723Z,31.30
2018-04-19T12:34:57.211Z,31.20
2018-04-19T12:37:25.184Z,30.30
2018-04-19T12:39:53.418Z,29.30
2018-04-19T12:42:21.181Z,29.30
2018-04-19T12:44:49.401Z,29.50
2018-04-19T12:47:17.007Z,29.50
2018-04-19T12:49:45.263Z,30.10
2018-04-19T12:52:14.248Z,30.20
2018-04-19T12:54:42.358Z,30.20
2018-04-19T12:57:10.612Z,29.50
2018-04-19T12:59:38.833Z,28.70
2018-04-19T13:02:06.314Z,28.70
2018-04-19T13:04:33.763Z,28.00
2018-04-19T13:07:01.236Z,28.30
2018-04-19T13:09:28.662Z,28.70
2018-04-19T13:11:58.123Z,28.50
2018-04-19T13:14:27.226Z,28.80
2018-04-19T13:16:55.154Z,28.80
2018-04-19T13:19:23.371Z,28.90
2018-04-19T13:21:50.976Z,28.90
2018-04-19T13:24:18.439Z,28.40
2018-04-19T13:26:45.924Z,28.00
2018-04-19T13:29:14.102Z,28.00
2018-04-19T13:31:42.050Z,28.00
2018-04-19T13:34:09.546Z,28.20
2018-04-19T13:36:37.002Z,27.80
2018-04-19T13:39:06.356Z,27.90
2018-04-19T13:41:33.789Z,27.90
2018-04-19T13:44:06.062Z,27.80
2018-04-19T13:46:34.270Z,27.50
2018-04-19T13:49:01.774Z,27.50
2018-04-19T13:51:30.004Z,27.20
2018-04-19T13:53:57.479Z,27.10
2018-04-19T13:56:25.979Z,27.30
2018-04-19T13:58:53.419Z,27.30
2018-04-19T14:01:20.851Z,27.50
2018-04-19T14:03:48.321Z,27.10
2018-04-19T14:06:16.411Z,27.00
2018-04-19T14:08:43.957Z,26.90
2018-04-19T14:11:11.382Z,26.80
2018-04-19T14:13:39.594Z,26.70
2018-04-19T14:16:07.046Z,26.70
2018-04-19T14:18:34.471Z,26.70
2018-04-19T14:21:03.501Z,26.70
2018-04-19T14:23:30.937Z,26.70
2018-04-19T14:25:58.408Z,26.80
2018-04-19T14:28:25.887Z,26.80
2018-04-19T14:30:53.441Z,26.90
2018-04-19T14:33:21.109Z,26.60
2018-04-19T14:35:48.556Z,26.80
2018-04-19T14:38:16.076Z,26.40
2018-04-19T14:40:45.023Z,26.50
2018-04-19T14:43:12.772Z,26.50
2018-04-19T14:45:40.211Z,26.50
2018-04-19T14:48:07.646Z,26.50
2018-04-19T14:50:36.065Z,26.60
2018-04-19T14:53:04.290Z,26.50
2018-04-19T14:58:17.746Z,26.50
2018-04-19T15:00:47.162Z,26.20
2018-04-19T15:03:14.782Z,26.30
2018-04-19T15:05:43.058Z,26.20
2018-04-19T15:08:10.595Z,26.10
2018-04-19T15:10:38.046Z,26.20
2018-04-19T15:13:06.713Z,26.40
2018-04-19T15:15:34.935Z,26.30
2018-04-19T15:18:02.355Z,26.30
2018-04-19T15:20:29.821Z,26.40
2018-04-19T15:22:57.363Z,26.40
2018-04-19T15:25:24.806Z,26.30
2018-04-19T15:27:53.203Z,26.30
2018-04-19T15:30:20.667Z,26.30
2018-04-19T15:32:48.084Z,26.30
2018-04-19T15:35:16.448Z,26.10
2018-04-19T15:37:43.939Z,26.00
2018-04-19T15:40:12.140Z,25.90
2018-04-19T15:42:39.588Z,25.90
2018-04-19T15:45:11.637Z,26.20
2018-04-19T15:47:39.846Z,25.70
2018-04-19T15:50:07.483Z,25.70
2018-04-19T15:52:36.578Z,25.60
2018-04-19T15:55:04.803Z,25.70
2018-04-19T15:57:32.213Z,25.70
2018-04-19T15:59:59.906Z,25.70
2018-04-19T16:02:28.375Z,25.70
2018-04-19T16:04:56.025Z,25.60
2018-04-19T16:07:23.624Z,25.60
2018-04-19T16:09:51.050Z,25.50
2018-04-19T16:12:18.598Z,25.50
2018-04-19T16:14:46.828Z,25.30
2018-04-19T16:17:14.307Z,25.30
2018-04-19T16:19:41.742Z,25.30
2018-04-19T16:22:09.210Z,25.20
2018-04-19T16:24:36.650Z,25.30
2018-04-19T16:27:04.187Z,25.20
2018-04-19T16:29:32.376Z,25.10
2018-04-19T16:31:59.809Z,25.10
2018-04-19T16:34:27.551Z,25.00
2018-04-19T16:36:55.011Z,24.90
2018-04-19T16:39:22.481Z,24.90
2018-04-19T16:41:49.910Z,24.80
2018-04-19T16:44:17.578Z,24.80
2018-04-19T16:46:48.350Z,24.80
2018-04-19T16:49:15.839Z,24.70
2018-04-19T16:51:44.355Z,24.60
2018-04-19T16:54:11.847Z,24.50
2018-04-19T16:56:39.494Z,24.60
2018-04-19T16:59:07.005Z,24.60
2018-04-19T17:01:34.474Z,24.50
2018-04-19T17:04:02.446Z,24.50
2018-04-19T17:06:29.878Z,24.40
2018-04-19T17:08:57.451Z,24.30
2018-04-19T17:11:24.935Z,24.20
2018-04-19T17:13:52.362Z,24.10
2018-04-19T17:16:19.942Z,24.10
2018-04-19T17:18:47.375Z,24.00
2018-04-19T17:21:15.329Z,24.00
2018-04-19T17:23:42.752Z,24.00
2018-04-19T17:26:10.975Z,23.70
2018-04-19T17:28:38.426Z,23.70
2018-04-19T17:31:05.905Z,23.60
2018-04-19T17:33:33.347Z,23.50
2018-04-19T17:36:00.805Z,23.50
2018-04-19T17:38:29.050Z,23.40
2018-04-19T17:40:57.262Z,23.20
2018-04-19T17:43:24.740Z,23.20
2018-04-19T17:45:52.413Z,23.10
2018-04-19T17:48:19.843Z,23.00
2018-04-19T17:50:47.284Z,23.00
2018-04-19T17:53:14.718Z,23.00
2018-04-19T17:55:42.179Z,22.90
2018-04-19T17:58:10.111Z,22.80
2018-04-19T18:00:37.576Z,22.70
2018-04-19T18:03:05.496Z,22.60
2018-04-19T18:05:32.937Z,22.50
2018-04-19T18:08:00.559Z,22.30
2018-04-19T18:10:28.033Z,22.20
2018-04-19T18:12:56.259Z,22.00
2018-04-19T18:15:23.742Z,22.00
2018-04-19T18:17:51.480Z,21.90
2018-04-19T18:20:19.671Z,21.80
2018-04-19T18:22:47.103Z,21.70
2018-04-19T18:25:15.513Z,21.60
2018-04-19T18:27:42.945Z,21.50
2018-04-19T18:30:12.396Z,21.40
2018-04-19T18:32:39.979Z,21.40
2018-04-19T18:35:07.485Z,21.30
2018-04-19T18:37:35.164Z,21.20
2018-04-19T18:40:02.630Z,21.10
2018-04-19T18:42:30.120Z,21.00
2018-04-19T18:44:58.360Z,20.80
2018-04-19T18:47:25.928Z,20.70
2018-04-19T18:49:53.422Z,20.60
2018-04-19T18:52:20.966Z,20.40
2018-04-19T18:54:49.385Z,20.30
2018-04-19T18:57:16.807Z,20.20
2018-04-19T18:59:45.029Z,20.20
2018-04-19T19:02:12.490Z,20.10
2018-04-19T19:04:39.938Z,20.10
2018-04-19T19:07:10.503Z,20.10
2018-04-19T19:09:38.825Z,20.00
2018-04-19T19:12:06.610Z,20.00
2018-04-19T19:14:34.258Z,19.90
2018-04-19T19:17:15.630Z,19.70
2018-04-19T19:19:55.431Z,19.60
2018-04-19T19:22:23.878Z,19.50
2018-04-19T19:24:51.678Z,19.50
2018-04-19T19:27:20.058Z,19.20
2018-04-19T19:29:47.487Z,19.20
2018-04-19T19:32:15.647Z,19.20
2018-04-19T19:34:43.237Z,19.10
2018-04-19T19:37:10.719Z,19.00
2018-04-19T19:39:39.911Z,19.00
2018-04-19T19:42:07.348Z,18.90
2018-04-19T19:44:35.439Z,19.00
2018-04-19T19:47:03.285Z,19.00
2018-04-19T19:49:30.866Z,18.90
2018-04-19T19:51:59.895Z,18.70
2018-04-19T19:54:28.545Z,18.60
2018-04-19T19:56:55.980Z,18.50
2018-04-19T19:59:23.539Z,18.50
2018-04-19T20:01:50.987Z,18.50
2018-04-19T20:04:18.450Z,18.40
2018-04-19T20:06:45.914Z,18.30
2018-04-19T20:09:13.366Z,18.30
2018-04-19T20:11:41.079Z,18.20
2018-04-19T20:14:09.283Z,18.10
2018-04-19T20:16:37.559Z,18.10
2018-04-19T20:19:04.998Z,18.00
2018-04-19T20:21:33.195Z,17.70
2018-04-19T20:24:00.639Z,17.70
2018-04-19T20:26:28.851Z,17.60
2018-04-19T20:28:56.323Z,17.60
2018-04-19T20:31:23.798Z,17.60
2018-04-19T20:33:51.345Z,17.50
2018-04-19T20:36:18.939Z,17.50
2018-04-19T20:38:47.142Z,17.30
2018-04-19T20:41:14.587Z,17.30
2018-04-19T20:43:42.126Z,17.30
2018-04-19T20:46:10.514Z,17.10
2018-04-19T20:48:38.834Z,17.00
2018-04-19T20:51:06.276Z,17.00
2018-04-19T20:53:34.291Z,17.00
2018-04-19T20:56:03.244Z,16.90
2018-04-19T20:58:31.042Z,16.90
2018-04-19T21:00:58.487Z,16.80
2018-04-19T21:03:25.946Z,16.80
2018-04-19T21:05:53.382Z,16.70
2018-04-19T21:08:20.836Z,16.70
2018-04-19T21:10:48.446Z,16.70
2018-04-19T21:13:15.896Z,16.80
2018-04-19T21:15:43.335Z,16.80
2018-04-19T21:18:10.781Z,16.80
2018-04-19T21:20:38.212Z,16.80
2018-04-19T21:23:05.672Z,16.80
2018-04-19T21:25:45.108Z,16.70
2018-04-19T21:28:12.698Z,16.70
2018-04-19T21:30:40.154Z,16.60
2018-04-19T21:33:07.585Z,16.70
2018-04-19T21:35:35.064Z,16.60
2018-04-19T21:38:02.594Z,16.60
2018-04-19T21:40:31.838Z,16.60
2018-04-19T21:42:59.463Z,16.60
2018-04-19T21:45:26.954Z,16.60
2018-04-19T21:47:54.687Z,16.50
2018-04-19T21:50:26.550Z,16.40
2018-04-19T21:52:54.027Z,16.50
2018-04-19T21:55:22.477Z,16.50
2018-04-19T21:57:50.683Z,16.50
2018-04-19T22:00:18.157Z,16.50
2018-04-19T22:02:46.342Z,16.40
2018-04-19T22:05:13.773Z,16.40
2018-04-19T22:07:41.445Z,16.40
2018-04-19T22:10:08.880Z,16.30
2018-04-19T22:12:36.325Z,16.30
2018-04-19T22:15:03.923Z,16.20
2018-04-19T22:17:31.376Z,16.20
2018-04-19T22:19:58.817Z,16.20
2018-04-19T22:22:26.302Z,16.20
2018-04-19T22:24:54.289Z,16.20
2018-04-19T22:27:21.816Z,16.20
2018-04-19T22:29:49.364Z,16.20
2018-04-19T22:32:16.812Z,16.20
2018-04-19T22:34:44.392Z,16.20
2018-04-19T22:37:11.849Z,16.10
2018-04-19T22:39:39.895Z,16.10
2018-04-19T22:42:08.795Z,15.90
2018-04-19T22:44:36.235Z,15.90
2018-04-19T22:47:04.451Z,15.80
2018-04-19T22:49:32.225Z,15.70
2018-04-19T22:51:59.684Z,15.70
2018-04-19T22:54:27.462Z,15.60
2018-04-19T22:56:54.942Z,15.60
2018-04-19T22:59:23.147Z,15.60
2018-04-19T23:01:50.582Z,15.60
2018-04-19T23:04:18.782Z,15.50
2018-04-19T23:06:46.254Z,15.50
2018-04-19T23:09:13.823Z,15.50
2018-04-19T23:11:41.298Z,15.40
2018-04-19T23:14:08.838Z,15.30
2018-04-19T23:16:36.291Z,15.30
2018-04-19T23:19:04.519Z,15.10
2018-04-19T23:21:32.887Z,15.00
2018-04-19T23:24:00.551Z,15.00
2018-04-19T23:26:30.611Z,14.80
2018-04-19T23:28:58.039Z,14.80
2018-04-19T23:31:30.563Z,14.70
2018-04-19T23:33:57.990Z,14.70
2018-04-19T23:36:25.469Z,14.70
2018-04-19T23:38:52.901Z,14.70
2018-04-19T23:41:21.114Z,14.50
2018-04-19T23:43:48.574Z,14.60
2018-04-19T23:46:16.041Z,14.50
2018-04-19T23:48:43.484Z,14.50
2018-04-19T23:51:10.926Z,14.50
2018-04-19T23:53:38.651Z,14.40
2018-04-19T23:56:07.569Z,14.40
2018-04-19T23:58:35.065Z,14.50
